SCTE 191300Z 36011KT 9999 FEW060 09/05 Q1016 NOSIG